AREA preflight bulletin
Updated "live" 22 Nov 2017, 21:50

back to the map




METAR og TAF


KANGERLUSSUAQ
  AKTUEL BGSF 222150Z AUTO 06007KT 9999NDV FEW033/// M15/M19 Q1028=
  TAF 24 timer BGSF 221658Z 2218/2324 06010KT 9999 FEW040 SCT060 TEMPO 2218/2324 BKN035=

SISIMIUT
  AKTUEL BGSS 222150Z AUTO 14004KT 040V160 9999NDV OVC063/// M01/M06 Q1025=
  TAF 9 timer BGSS 221457Z 2215/2220 10010KT 9999 SCT010 SCT200 TEMPO 2215/2220 BKN050=

MANIITSOQ
  AKTUEL BGMQ 222150Z AUTO 06015KT 9999NDV BKN050/// M02/M08 Q1025=
  TAF 9 timer BGMQ 221802Z 2218/2220 CNL=

NUUK
  AKTUEL BGGH 222050Z 05008KT 9999 FEW050 BKN150 M02/M05 Q1026=
  TAF 9 timer BGGH 221718Z 2218/2223 10005KT 9999 BKN180 PROB40 2218/2223 BKN070=

ILULISSAT
  AKTUEL BGJN 222150Z 08018KT 9999 FEW060 M08/M20 Q1028=
  TAF 9 timer BGJN 221718Z 2218/2222 09022KT 9999 DRSN FEW060 SCT200 TEMPO 2218/2222 08020G35KT=

AASIAAT
  AKTUEL BGAA 222150Z AUTO 04015KT 9999NDV NCD M05/M10 Q1027=
  TAF 9 timer BGAA 221955Z 2218/2221 CNL=


SIGMETS:

Ingen SIGMET fundet:

SNOWTAM:

ICAO
BGSF (KANGERLUSSUAQ)

valid from:
1711221745

Notam_id:
0111

SNOWTAM 0111 A)BGSF B)11221745 C)09 F)83/83/83 G)1/1/1 H)1/2/2 N)A/83/MEDIUM B C D/83/MEDIUM R)N E W HELI-APRON/83/MEDIUM T)MEASURED FRICTION COEFFICIENTS 24/27/28 TAP, RWY CONTAMINATION 10 PERCENT 1MM OF COMPACTED OR ROLLED SNOW AND 100 PERCENT 1MM RIME OR FROST COVERED, SWEEPING IN PROGRESS


ICAO
BGSS (SISIMIUT)

valid from:
1711221807

Notam_id:
0082

SNOWTAM 0082 A)BGSS B)11221807 C)13 F)3/3/3 G)2/2/2 H)5/5/5 N)38/MEDIUM-GOOD R)38/POOR T)RWY CONTAMINATION 100 PERCENT 1MM RIME 010 PERCENT 3MM COMPACTED SNOW MEASURED FRICTION COEFFICIENTS 91/55/53 WHITE PAINTED SURFACES 21


ICAO
BGMQ (MANIITSOQ)

valid from:
1711221105

Notam_id:
0067

SNOWTAM 0067 A)BGMQ B)11221105 C)16 F)3/3/3 G)1/1/1 H)5/5/5 N)3/GOOD R)38/GOOD T)RWY IS COVERED 10PCT BY 1MM OF RIME - MEASURED FRICTION COEFFICIENTS 90/90/90 TAP


ICAO
BGGH (NUUK)

valid from:
1711221938

Notam_id:
0143

SNOWTAM 0143 A)BGGH B)11221938 C)05 F)7/7/7 G)1/1/1 H)5/5/5 N)37/GOOD R)37/POOR T)RWY CONTAMINATION 100 PERCENT 1MM ICE - MEASURED FRICTION COEFFICIENTS 64/78/77 TAP


ICAO
BGJN (ILULISSAT)

valid from:
1711221028

Notam_id:
0073

SNOWTAM 0073 A)BGJN B)11221028 C)07 F)7/7/7 G)3/3/3 H)5/5/5 N)78/GOOD R)478/GOOD T)RUNWAY CONTAMINATION 10 PERCENT 3MM ICE - MEASURED FRICTION COEFFICIENTS 71/69/73 TAP


ICAO
BGAA (AASIAAT)

valid from:
1711221116

Notam_id:
0067

SNOWTAM 0067 A)BGAA B)11221116 C)11 F)347/347/347 G)4/4/4 H)5/5/5 N)347/GOOD R)347/POOR T)RWY CONTAMINATION 100 PERCENT 1MM RIME 25 PERCENT 1MM DRY SNOW AND 25 PERCENT 2MM ICE - MEASURED FRICTION COEFFICIENTS 48/47/42 TAP



NOTAM/SNOWTAM for operationel use has to be confirmed with the
nearest AIS Briefing Office prior to a flight.

ICAO
BGSF (KANGERLUSSUAQ)

FIR
BGGL

Notam_id:
BGA0539/17

valid from:
1711211100

E) TWY D CLSD BTW SUNSET AND SUNRISE. IN SPECIAL CASES MARSHALLING CAN BE REQ.

valid to:
PERM




ICAO
BGSS (SISIMIUT)

FIR
BGGL

Notam_id:
BGB0810/17

valid from:
1710311143

E) THR ID LIGHTS RWY 13 SOUTHSIDE OUT OF SERVICE.

valid to:
1711302359


Replacing:
BGB0756/17

ICAO
BGGH (NUUK)

FIR
BGGL

Notam_id:
BGB0780/17

valid from:
1712070000

E) TRIGGER NOTAM - PERM AIP AIRAC AMDT 12/17 WEF 07 DEC 2017. NEW RNAV GNSS RWY 23 INSTRUMENT APPROACH PROCEDURE. NEW RNAV GNSS CIRCLING B INSTRUMENT APPROACH PROCEDURE.

valid to:
1712202359




ICAO
BGGH (NUUK)

FIR
BGGL

Notam_id:
BGB0789/17

valid from:
1710241439

E) CRANE RAISED AT PSN 641124N0514021W (AIR GREENLAND HANGAR AREA).TOP 82FT AGL.

valid to:
1711301900




ICAO
BGGH (NUUK)

FIR
BGGL

Notam_id:
BGB0806/17

valid from:
1712070000

E) ERROR IN CODING TABLE FOR RNAV (GNSS) APPROACH RWY 23. WITH REF AIP GREENLAND AD 2 ? BGGH RNAV (GNSS) RWY 23 - 2, EFFECTIVE DATE 07 DEC 17. CORRECT THE PATH DESCRIPTOR FOR SERIAL NUMBER 060 TO READ TF INSTEAD OF DF.

valid to:
PERM




ICAO
BGGH (NUUK)

FIR
BGGL

Notam_id:
BGB0814/17

valid from:
1711011108

E) BGGH AFIS FREQ 119,100 MHZ NO COVERAGE IN SEKTOR BETWEEN 060 DEG MAG AND 210 DEG MAG BELOW FL100.

valid to:
1712312359




ICAO
BGJN (ILULISSAT)

FIR
BGGL

Notam_id:
BGB0805/17

valid from:
1710301312

E) FUELLING FACILITIES AND CAPACITY: JET A1: 300 L/MIN, WAITING TIME FOR REFUELLING CAN OCCUR. 100LL: LIMITED QUANTITIES, AVBL BY SPECIAL ARRANGEMENT ONLY. NOTE: WAITING TIME CAN OCCUR FOR JET A1 AND 100LL REFUELING.

valid to:
PERM


Replacing:
BGB0683/17

ICAO
BGGL (SONDRESTROM FIR)

FIR
BGGL

Notam_id:
BGA0491/17

valid from:
1711010602

E) CHECKLIST YEAR=2017 0269 0475 0479 LATEST PUBLICATIONS AIP AIRAC AMDT IFR 012/2017 EFFECTIVE DATE 07 DEC 17 AIP AMDT IFR 010/2017 EFFECTIVE DATE 26 OCT 17 AIP SUP IFR 004/2017 EFFECTIVE DATE 10 OCT 17 AIC IFR A002/2017 EFFECTIVE DATE 31 AUG 17

valid to:
1712010602EST


Replacing:
BGA0443/17

ICAO
BGGL (SONDRESTROM FIR)

FIR
BGGL

Notam_id:
BGB0812/17

valid from:
1711010603

E) CHECKLIST YEAR=2016 0593 YEAR=2017 0649 0650 0712 0713 0720 0722 0740 0775 0779 0780 0781 0786 0787 0789 0792 0805 0806 0808 0810 0811 LATEST PUBLICATIONS AIP AIRAC AMDT IFR 012/2017 EFFECTIVE DATE 07 DEC 17 AIP AMDT IFR 010/2017 EFFECTIVE DATE 26 OCT 17 AIP SUP IFR 004/2017 EFFECTIVE DATE 10 OCT 17 AIC IFR A002/2017 EFFECTIVE DATE 31 AUG 17

valid to:
1712010603EST


Replacing:
BGB0761/17

ICAO
BGGL (SONDRESTROM FIR)

FIR
BGGL

Notam_id:
BGC0053/17

valid from:
1711010603

E) CHECKLIST YEAR=2016 0044 YEAR=2017 0045 0050 0051 LATEST PUBLICATIONS AIP AIRAC AMDT IFR 012/2017 EFFECTIVE DATE 07 DEC 17 AIP AMDT IFR 010/2017 EFFECTIVE DATE 26 OCT 17 AIP SUP IFR 004/2017 EFFECTIVE DATE 10 OCT 17 AIC IFR A002/2017 EFFECTIVE DATE 31 AUG 17

valid to:
1712010603EST


Replacing:
BGC0049/17

ICAO
BGGL (SONDRESTROM FIR)

FIR
BGGL

Notam_id:
BGA0537/17

valid from:
1711201705

E) PRINS CHRISTIAN SUND NDB OZN FREQ 372KHZ PSN:600326N0430935W OUT OF SERVICE.

valid to:
1711241900EST


Replacing:
BGA0536/17

ICAO
BGAA (AASIAAT)

FIR
BGGL

Notam_id:
BGA0269/17

valid from:
1706081136

D) DAILY 1100-1115 2300-2315


E) ASCENT OR WEATHER BALLOON TAKES PLACE TWICE A DAY 1100-1115 AND 2300-2315. POSN 684201N0525105W LOCATED WEST OF THE AIRPORT AT A DISTANCE OF APPROX 3 KM. THE BALLOON CAN RISE TO A HEIGHT OF UP TO 35 KM. REF AIP GREENLAND AD 2 - BGAA - 4. F) SFC G) FL999

valid to:
PERM




ICAO
BGAA (AASIAAT)

FIR
BGGL

Notam_id:
BGB0859/17

valid from:
1711221650

E) SNOW REMOVAL EQPT (SWEEPER)OUT OF SERVICE.

valid to:
1711271800


Replacing:
BGB0854/17


Copyright Naviair   2003-2016